sensor_id;sensor_type;location;lat;lon;timestamp;pressure;altitude;pressure_sealevel;temperature;humidity
49455;BME280;69710;64.656;21.218;2023-06-26T00:01:34;101839.92;;;12.94;100.00
49455;BME280;69710;64.656;21.218;2023-06-26T00:04:02;101837.15;;;12.69;100.00
49455;BME280;69710;64.656;21.218;2023-06-26T00:06:30;101841.87;;;12.97;100.00
49455;BME280;69710;64.656;21.218;2023-06-26T00:08:58;101844.29;;;13.05;100.00
49455;BME280;69710;64.656;21.218;2023-06-26T00:11:26;101840.66;;;12.59;100.00
49455;BME280;69710;64.656;21.218;2023-06-26T00:13:54;101835.91;;;12.65;100.00
49455;BME280;69710;64.656;21.218;2023-06-26T00:16:22;101839.59;;;12.69;100.00
49455;BME280;69710;64.656;21.218;2023-06-26T00:18:51;101838.09;;;12.58;100.00
49455;BME280;69710;64.656;21.218;2023-06-26T00:21:19;101840.11;;;12.83;100.00
49455;BME280;69710;64.656;21.218;2023-06-26T00:23:47;101844.28;;;12.83;100.00
49455;BME280;69710;64.656;21.218;2023-06-26T00:26:15;101849.25;;;12.87;100.00
49455;BME280;69710;64.656;21.218;2023-06-26T00:28:43;101851.64;;;12.96;100.00
49455;BME280;69710;64.656;21.218;2023-06-26T00:31:11;101845.29;;;13.29;100.00
49455;BME280;69710;64.656;21.218;2023-06-26T00:33:38;101842.52;;;13.18;100.00
49455;BME280;69710;64.656;21.218;2023-06-26T00:36:06;101840.87;;;13.40;100.00
49455;BME280;69710;64.656;21.218;2023-06-26T00:38:35;101841.68;;;13.76;100.00
49455;BME280;69710;64.656;21.218;2023-06-26T00:41:03;101838.82;;;13.53;100.00
49455;BME280;69710;64.656;21.218;2023-06-26T00:43:31;101838.17;;;13.77;100.00
49455;BME280;69710;64.656;21.218;2023-06-26T00:45:59;101837.20;;;13.79;100.00
49455;BME280;69710;64.656;21.218;2023-06-26T00:48:27;101834.80;;;14.04;100.00
49455;BME280;69710;64.656;21.218;2023-06-26T00:50:55;101832.68;;;14.18;100.00
49455;BME280;69710;64.656;21.218;2023-06-26T00:53:23;101826.35;;;14.18;100.00
49455;BME280;69710;64.656;21.218;2023-06-26T00:55:51;101825.56;;;14.54;100.00
49455;BME280;69710;64.656;21.218;2023-06-26T00:58:20;101827.20;;;14.51;100.00
49455;BME280;69710;64.656;21.218;2023-06-26T01:00:49;101824.32;;;15.26;100.00
49455;BME280;69710;64.656;21.218;2023-06-26T01:03:17;101819.63;;;15.47;100.00
49455;BME280;69710;64.656;21.218;2023-06-26T01:05:45;101826.51;;;16.39;100.00
49455;BME280;69710;64.656;21.218;2023-06-26T01:08:15;101830.06;;;16.51;100.00
49455;BME280;69710;64.656;21.218;2023-06-26T01:10:43;101829.78;;;16.92;100.00
49455;BME280;69710;64.656;21.218;2023-06-26T01:13:11;101826.91;;;17.22;100.00
49455;BME280;69710;64.656;21.218;2023-06-26T01:15:40;101822.62;;;17.81;100.00
49455;BME280;69710;64.656;21.218;2023-06-26T01:18:08;101823.23;;;17.85;100.00
49455;BME280;69710;64.656;21.218;2023-06-26T01:20:37;101824.62;;;17.86;100.00
49455;BME280;69710;64.656;21.218;2023-06-26T01:23:12;101822.85;;;17.74;97.58
49455;BME280;69710;64.656;21.218;2023-06-26T01:25:53;101822.77;;;16.77;99.04
49455;BME280;69710;64.656;21.218;2023-06-26T01:28:24;101823.77;;;15.77;100.00
49455;BME280;69710;64.656;21.218;2023-06-26T01:30:54;101826.62;;;16.05;100.00
49455;BME280;69710;64.656;21.218;2023-06-26T01:33:22;101824.48;;;15.31;100.00
49455;BME280;69710;64.656;21.218;2023-06-26T01:35:50;101822.17;;;15.32;100.00
49455;BME280;69710;64.656;21.218;2023-06-26T01:38:19;101824.74;;;14.51;100.00
49455;BME280;69710;64.656;21.218;2023-06-26T01:40:47;101827.17;;;14.56;100.00
49455;BME280;69710;64.656;21.218;2023-06-26T01:43:21;101828.44;;;14.91;100.00
49455;BME280;69710;64.656;21.218;2023-06-26T01:45:55;101823.31;;;14.36;100.00
49455;BME280;69710;64.656;21.218;2023-06-26T01:48:29;101824.32;;;14.19;100.00
49455;BME280;69710;64.656;21.218;2023-06-26T01:50:59;101827.27;;;14.17;100.00
49455;BME280;69710;64.656;21.218;2023-06-26T01:53:32;101828.60;;;14.39;100.00
49455;BME280;69710;64.656;21.218;2023-06-26T01:56:06;101825.91;;;13.67;100.00
49455;BME280;69710;64.656;21.218;2023-06-26T01:58:36;101822.99;;;14.01;100.00
49455;BME280;69710;64.656;21.218;2023-06-26T02:01:07;101826.44;;;13.93;100.00
49455;BME280;69710;64.656;21.218;2023-06-26T02:03:35;101828.50;;;14.18;100.00
49455;BME280;69710;64.656;21.218;2023-06-26T02:06:03;101833.00;;;13.51;100.00
49455;BME280;69710;64.656;21.218;2023-06-26T02:08:30;101834.15;;;13.40;100.00
49455;BME280;69710;64.656;21.218;2023-06-26T02:10:59;101833.43;;;13.72;100.00
49455;BME280;69710;64.656;21.218;2023-06-26T02:13:26;101833.92;;;13.52;100.00
49455;BME280;69710;64.656;21.218;2023-06-26T02:15:54;101832.48;;;13.75;100.00
49455;BME280;69710;64.656;21.218;2023-06-26T02:18:23;101831.28;;;13.99;100.00
49455;BME280;69710;64.656;21.218;2023-06-26T02:20:51;101832.07;;;13.76;100.00
49455;BME280;69710;64.656;21.218;2023-06-26T02:23:19;101834.01;;;14.23;100.00
49455;BME280;69710;64.656;21.218;2023-06-26T02:25:47;101832.67;;;13.59;100.00
49455;BME280;69710;64.656;21.218;2023-06-26T02:28:15;101833.87;;;13.92;100.00
49455;BME280;69710;64.656;21.218;2023-06-26T02:30:43;101830.63;;;13.56;100.00
49455;BME280;69710;64.656;21.218;2023-06-26T02:33:11;101826.40;;;13.87;100.00
49455;BME280;69710;64.656;21.218;2023-06-26T02:35:39;101822.11;;;13.83;100.00
49455;BME280;69710;64.656;21.218;2023-06-26T02:38:07;101818.08;;;13.80;100.00
49455;BME280;69710;64.656;21.218;2023-06-26T02:40:35;101815.70;;;14.04;100.00
49455;BME280;69710;64.656;21.218;2023-06-26T02:43:04;101813.84;;;14.16;100.00
49455;BME280;69710;64.656;21.218;2023-06-26T02:45:32;101808.64;;;14.31;100.00
49455;BME280;69710;64.656;21.218;2023-06-26T02:47:59;101810.00;;;14.41;100.00
49455;BME280;69710;64.656;21.218;2023-06-26T02:50:27;101813.97;;;14.32;100.00
49455;BME280;69710;64.656;21.218;2023-06-26T02:52:56;101815.11;;;13.93;100.00
49455;BME280;69710;64.656;21.218;2023-06-26T02:55:24;101809.98;;;14.09;100.00
49455;BME280;69710;64.656;21.218;2023-06-26T02:57:52;101812.51;;;13.93;100.00
49455;BME280;69710;64.656;21.218;2023-06-26T03:00:20;101812.33;;;14.37;100.00
49455;BME280;69710;64.656;21.218;2023-06-26T03:02:48;101810.38;;;14.71;100.00
49455;BME280;69710;64.656;21.218;2023-06-26T03:05:16;101810.35;;;15.00;100.00
49455;BME280;69710;64.656;21.218;2023-06-26T03:07:44;101807.64;;;14.83;100.00
49455;BME280;69710;64.656;21.218;2023-06-26T03:10:12;101804.37;;;14.56;100.00
49455;BME280;69710;64.656;21.218;2023-06-26T03:12:40;101798.18;;;14.93;100.00
49455;BME280;69710;64.656;21.218;2023-06-26T03:15:09;101796.36;;;15.74;100.00
49455;BME280;69710;64.656;21.218;2023-06-26T03:17:36;101793.85;;;16.36;100.00
49455;BME280;69710;64.656;21.218;2023-06-26T03:20:06;101791.53;;;17.38;100.00
49455;BME280;69710;64.656;21.218;2023-06-26T03:22:33;101795.85;;;16.41;100.00
49455;BME280;69710;64.656;21.218;2023-06-26T03:25:05;101790.41;;;17.73;100.00
49455;BME280;69710;64.656;21.218;2023-06-26T03:27:33;101792.80;;;18.15;100.00
49455;BME280;69710;64.656;21.218;2023-06-26T03:30:01;101787.45;;;18.54;97.31
49455;BME280;69710;64.656;21.218;2023-06-26T03:32:29;101785.40;;;18.07;95.71
49455;BME280;69710;64.656;21.218;2023-06-26T03:34:57;101785.73;;;17.45;98.31
49455;BME280;69710;64.656;21.218;2023-06-26T03:37:25;101787.74;;;17.89;97.23
49455;BME280;69710;64.656;21.218;2023-06-26T03:39:53;101791.20;;;18.12;94.72
49455;BME280;69710;64.656;21.218;2023-06-26T03:42:20;101787.36;;;17.92;97.58
49455;BME280;69710;64.656;21.218;2023-06-26T03:44:48;101783.94;;;17.06;100.00
49455;BME280;69710;64.656;21.218;2023-06-26T03:47:16;101782.49;;;17.80;99.82
49455;BME280;69710;64.656;21.218;2023-06-26T03:49:45;101777.41;;;18.00;97.40
49455;BME280;69710;64.656;21.218;2023-06-26T03:52:13;101780.39;;;18.92;94.85
49455;BME280;69710;64.656;21.218;2023-06-26T03:54:40;101780.38;;;18.23;96.92
49455;BME280;69710;64.656;21.218;2023-06-26T03:57:08;101781.35;;;17.51;97.66
49455;BME280;69710;64.656;21.218;2023-06-26T03:59:37;101783.28;;;16.83;100.00
49455;BME280;69710;64.656;21.218;2023-06-26T04:02:05;101783.29;;;19.32;94.71
49455;BME280;69710;64.656;21.218;2023-06-26T04:04:32;101780.55;;;20.35;90.42
49455;BME280;69710;64.656;21.218;2023-06-26T04:07:00;101783.92;;;20.71;85.07
49455;BME280;69710;64.656;21.218;2023-06-26T04:09:28;101785.94;;;21.44;80.48
49455;BME280;69710;64.656;21.218;2023-06-26T04:11:56;101783.99;;;21.16;80.61
49455;BME280;69710;64.656;21.218;2023-06-26T04:14:25;101783.76;;;17.93;88.13
49455;BME280;69710;64.656;21.218;2023-06-26T04:16:53;101789.15;;;14.20;100.00
49455;BME280;69710;64.656;21.218;2023-06-26T04:19:21;101784.84;;;13.75;100.00
49455;BME280;69710;64.656;21.218;2023-06-26T04:21:49;101785.30;;;14.84;100.00
49455;BME280;69710;64.656;21.218;2023-06-26T04:24:17;101779.24;;;16.52;100.00
49455;BME280;69710;64.656;21.218;2023-06-26T04:26:45;101776.13;;;17.84;100.00
49455;BME280;69710;64.656;21.218;2023-06-26T04:29:14;101775.86;;;17.81;100.00
49455;BME280;69710;64.656;21.218;2023-06-26T04:31:42;101778.57;;;15.61;100.00
49455;BME280;69710;64.656;21.218;2023-06-26T04:34:10;101777.33;;;13.70;100.00
49455;BME280;69710;64.656;21.218;2023-06-26T04:36:38;101778.69;;;13.71;100.00
49455;BME280;69710;64.656;21.218;2023-06-26T04:39:06;101773.66;;;14.40;100.00
49455;BME280;69710;64.656;21.218;2023-06-26T04:41:33;101776.80;;;13.73;100.00
49455;BME280;69710;64.656;21.218;2023-06-26T04:44:01;101776.14;;;14.73;100.00
49455;BME280;69710;64.656;21.218;2023-06-26T04:46:29;101773.61;;;14.72;100.00
49455;BME280;69710;64.656;21.218;2023-06-26T04:48:57;101768.19;;;13.56;100.00
49455;BME280;69710;64.656;21.218;2023-06-26T04:51:25;101769.10;;;15.09;100.00
49455;BME280;69710;64.656;21.218;2023-06-26T04:53:54;101769.16;;;16.43;100.00
49455;BME280;69710;64.656;21.218;2023-06-26T04:56:21;101763.92;;;18.22;100.00
49455;BME280;69710;64.656;21.218;2023-06-26T04:58:49;101762.55;;;20.06;100.00
49455;BME280;69710;64.656;21.218;2023-06-26T05:01:17;101766.06;;;21.16;94.45
49455;BME280;69710;64.656;21.218;2023-06-26T05:03:45;101767.74;;;20.83;92.51
49455;BME280;69710;64.656;21.218;2023-06-26T05:06:13;101769.09;;;16.64;100.00
49455;BME280;69710;64.656;21.218;2023-06-26T05:08:41;101768.55;;;15.99;100.00
49455;BME280;69710;64.656;21.218;2023-06-26T05:11:09;101765.06;;;14.72;100.00
49455;BME280;69710;64.656;21.218;2023-06-26T05:13:36;101763.88;;;14.40;100.00
49455;BME280;69710;64.656;21.218;2023-06-26T05:16:05;101759.62;;;14.52;100.00
49455;BME280;69710;64.656;21.218;2023-06-26T05:18:33;101759.81;;;14.86;100.00
49455;BME280;69710;64.656;21.218;2023-06-26T05:21:02;101757.79;;;15.28;100.00
49455;BME280;69710;64.656;21.218;2023-06-26T05:23:32;101758.04;;;17.57;100.00
49455;BME280;69710;64.656;21.218;2023-06-26T05:26:00;101753.95;;;18.21;100.00
49455;BME280;69710;64.656;21.218;2023-06-26T05:28:29;101755.32;;;19.48;100.00
49455;BME280;69710;64.656;21.218;2023-06-26T05:30:57;101753.35;;;20.01;99.15
49455;BME280;69710;64.656;21.218;2023-06-26T05:33:26;101752.03;;;19.60;98.46
49455;BME280;69710;64.656;21.218;2023-06-26T05:35:55;101753.63;;;20.65;95.20
49455;BME280;69710;64.656;21.218;2023-06-26T05:38:28;101752.67;;;19.45;100.00
49455;BME280;69710;64.656;21.218;2023-06-26T05:40:56;101753.91;;;19.49;100.00
49455;BME280;69710;64.656;21.218;2023-06-26T05:43:25;101754.19;;;18.77;100.00
49455;BME280;69710;64.656;21.218;2023-06-26T05:45:52;101753.01;;;18.28;100.00
49455;BME280;69710;64.656;21.218;2023-06-26T05:48:20;101755.72;;;17.40;100.00
49455;BME280;69710;64.656;21.218;2023-06-26T05:50:48;101755.11;;;17.20;100.00
49455;BME280;69710;64.656;21.218;2023-06-26T05:53:16;101752.14;;;17.70;100.00
49455;BME280;69710;64.656;21.218;2023-06-26T05:55:45;101756.38;;;17.99;100.00
49455;BME280;69710;64.656;21.218;2023-06-26T05:58:13;101758.19;;;16.81;100.00
49455;BME280;69710;64.656;21.218;2023-06-26T06:00:42;101755.97;;;17.10;100.00
49455;BME280;69710;64.656;21.218;2023-06-26T06:03:11;101758.65;;;17.04;100.00
49455;BME280;69710;64.656;21.218;2023-06-26T06:05:39;101755.20;;;16.50;100.00
49455;BME280;69710;64.656;21.218;2023-06-26T06:08:06;101753.43;;;16.31;100.00
49455;BME280;69710;64.656;21.218;2023-06-26T06:10:34;101749.54;;;15.98;100.00
49455;BME280;69710;64.656;21.218;2023-06-26T06:13:02;101746.22;;;14.94;100.00
49455;BME280;69710;64.656;21.218;2023-06-26T06:15:29;101743.49;;;15.65;100.00
49455;BME280;69710;64.656;21.218;2023-06-26T06:17:57;101743.64;;;15.77;100.00
49455;BME280;69710;64.656;21.218;2023-06-26T06:20:25;101744.47;;;16.02;100.00
49455;BME280;69710;64.656;21.218;2023-06-26T06:22:53;101739.16;;;15.65;100.00
49455;BME280;69710;64.656;21.218;2023-06-26T06:25:20;101735.76;;;15.71;100.00
49455;BME280;69710;64.656;21.218;2023-06-26T06:27:48;101733.54;;;16.10;100.00
49455;BME280;69710;64.656;21.218;2023-06-26T06:30:16;101733.94;;;15.89;100.00
49455;BME280;69710;64.656;21.218;2023-06-26T06:32:43;101733.56;;;15.17;100.00
49455;BME280;69710;64.656;21.218;2023-06-26T06:35:11;101735.36;;;15.82;100.00
49455;BME280;69710;64.656;21.218;2023-06-26T06:37:39;101732.46;;;16.05;100.00
49455;BME280;69710;64.656;21.218;2023-06-26T06:40:10;101727.98;;;15.72;100.00
49455;BME280;69710;64.656;21.218;2023-06-26T06:42:38;101730.56;;;15.32;100.00
49455;BME280;69710;64.656;21.218;2023-06-26T06:45:07;101729.47;;;15.71;100.00
49455;BME280;69710;64.656;21.218;2023-06-26T06:47:35;101733.94;;;16.18;100.00
49455;BME280;69710;64.656;21.218;2023-06-26T06:50:03;101732.90;;;14.92;100.00
49455;BME280;69710;64.656;21.218;2023-06-26T06:52:30;101735.09;;;15.46;100.00
49455;BME280;69710;64.656;21.218;2023-06-26T06:54:58;101734.25;;;15.00;100.00
49455;BME280;69710;64.656;21.218;2023-06-26T06:57:26;101731.39;;;15.12;100.00
49455;BME280;69710;64.656;21.218;2023-06-26T06:59:54;101727.14;;;15.01;100.00
49455;BME280;69710;64.656;21.218;2023-06-26T07:02:21;101723.72;;;15.16;100.00
49455;BME280;69710;64.656;21.218;2023-06-26T07:04:49;101719.95;;;15.58;100.00
49455;BME280;69710;64.656;21.218;2023-06-26T07:07:19;101722.51;;;15.03;100.00
49455;BME280;69710;64.656;21.218;2023-06-26T07:09:46;101719.26;;;15.10;100.00
49455;BME280;69710;64.656;21.218;2023-06-26T07:12:14;101718.62;;;15.10;100.00
49455;BME280;69710;64.656;21.218;2023-06-26T07:14:42;101716.90;;;15.33;100.00
49455;BME280;69710;64.656;21.218;2023-06-26T07:17:10;101719.41;;;14.57;100.00
49455;BME280;69710;64.656;21.218;2023-06-26T07:19:38;101720.22;;;14.77;100.00
49455;BME280;69710;64.656;21.218;2023-06-26T07:22:06;101718.17;;;14.28;100.00
49455;BME280;69710;64.656;21.218;2023-06-26T07:24:34;101718.64;;;14.78;100.00
49455;BME280;69710;64.656;21.218;2023-06-26T07:27:01;101720.00;;;14.82;100.00
49455;BME280;69710;64.656;21.218;2023-06-26T07:29:31;101719.51;;;14.70;100.00
49455;BME280;69710;64.656;21.218;2023-06-26T07:32:02;101716.62;;;14.79;100.00
49455;BME280;69710;64.656;21.218;2023-06-26T07:34:30;101715.03;;;15.02;100.00
49455;BME280;69710;64.656;21.218;2023-06-26T07:36:57;101717.91;;;14.69;100.00
49455;BME280;69710;64.656;21.218;2023-06-26T07:39:25;101716.30;;;14.14;100.00
49455;BME280;69710;64.656;21.218;2023-06-26T07:41:53;101713.29;;;14.33;100.00
49455;BME280;69710;64.656;21.218;2023-06-26T07:44:21;101710.15;;;14.48;100.00
49455;BME280;69710;64.656;21.218;2023-06-26T07:46:49;101707.21;;;14.70;100.00
49455;BME280;69710;64.656;21.218;2023-06-26T07:49:16;101706.78;;;14.72;100.00
49455;BME280;69710;64.656;21.218;2023-06-26T07:51:44;101701.40;;;15.43;100.00
49455;BME280;69710;64.656;21.218;2023-06-26T07:54:12;101702.68;;;15.14;100.00
49455;BME280;69710;64.656;21.218;2023-06-26T07:56:53;101706.71;;;15.39;100.00
49455;BME280;69710;64.656;21.218;2023-06-26T07:59:21;101708.60;;;14.80;100.00
49455;BME280;69710;64.656;21.218;2023-06-26T08:01:50;101711.91;;;14.76;100.00
49455;BME280;69710;64.656;21.218;2023-06-26T08:04:19;101707.81;;;15.05;100.00
49455;BME280;69710;64.656;21.218;2023-06-26T08:06:48;101705.26;;;14.99;100.00
49455;BME280;69710;64.656;21.218;2023-06-26T08:09:16;101704.89;;;15.13;100.00
49455;BME280;69710;64.656;21.218;2023-06-26T08:11:44;101700.85;;;15.00;100.00
49455;BME280;69710;64.656;21.218;2023-06-26T08:14:12;101695.37;;;15.30;100.00
49455;BME280;69710;64.656;21.218;2023-06-26T08:16:39;101695.01;;;15.45;100.00
49455;BME280;69710;64.656;21.218;2023-06-26T08:19:07;101696.86;;;15.66;100.00
49455;BME280;69710;64.656;21.218;2023-06-26T08:21:35;101693.07;;;15.61;100.00
49455;BME280;69710;64.656;21.218;2023-06-26T08:24:03;101692.92;;;15.41;100.00
49455;BME280;69710;64.656;21.218;2023-06-26T08:26:30;101688.38;;;15.97;100.00
49455;BME280;69710;64.656;21.218;2023-06-26T08:28:58;101687.03;;;15.83;100.00
49455;BME280;69710;64.656;21.218;2023-06-26T08:31:25;101685.48;;;15.50;100.00
49455;BME280;69710;64.656;21.218;2023-06-26T08:33:53;101683.37;;;15.99;100.00
49455;BME280;69710;64.656;21.218;2023-06-26T08:36:21;101677.94;;;15.95;100.00
49455;BME280;69710;64.656;21.218;2023-06-26T08:38:48;101680.56;;;15.76;100.00
49455;BME280;69710;64.656;21.218;2023-06-26T08:41:17;101678.32;;;15.66;100.00
49455;BME280;69710;64.656;21.218;2023-06-26T08:43:44;101674.78;;;15.85;100.00
49455;BME280;69710;64.656;21.218;2023-06-26T08:46:13;101670.15;;;15.95;100.00
49455;BME280;69710;64.656;21.218;2023-06-26T08:48:48;101673.01;;;16.40;100.00
49455;BME280;69710;64.656;21.218;2023-06-26T08:51:18;101675.03;;;15.68;100.00
49455;BME280;69710;64.656;21.218;2023-06-26T08:53:52;101667.53;;;15.83;100.00
49455;BME280;69710;64.656;21.218;2023-06-26T08:56:22;101671.15;;;15.56;100.00
49455;BME280;69710;64.656;21.218;2023-06-26T08:58:52;101671.09;;;15.31;100.00
49455;BME280;69710;64.656;21.218;2023-06-26T09:01:20;101671.18;;;15.51;100.00
49455;BME280;69710;64.656;21.218;2023-06-26T09:03:48;101668.22;;;15.67;100.00
49455;BME280;69710;64.656;21.218;2023-06-26T09:06:17;101668.41;;;15.82;100.00
49455;BME280;69710;64.656;21.218;2023-06-26T09:08:48;101664.79;;;15.95;100.00
49455;BME280;69710;64.656;21.218;2023-06-26T09:11:16;101661.52;;;15.72;100.00
49455;BME280;69710;64.656;21.218;2023-06-26T09:13:44;101658.68;;;15.98;100.00
49455;BME280;69710;64.656;21.218;2023-06-26T09:16:13;101655.12;;;15.80;100.00
49455;BME280;69710;64.656;21.218;2023-06-26T09:18:41;101657.10;;;15.76;100.00
49455;BME280;69710;64.656;21.218;2023-06-26T09:21:09;101654.39;;;15.70;100.00
49455;BME280;69710;64.656;21.218;2023-06-26T09:23:39;101647.36;;;15.65;100.00
49455;BME280;69710;64.656;21.218;2023-06-26T09:26:08;101644.83;;;15.91;100.00
49455;BME280;69710;64.656;21.218;2023-06-26T09:28:36;101644.39;;;15.69;100.00
49455;BME280;69710;64.656;21.218;2023-06-26T09:31:05;101640.34;;;15.68;100.00
49455;BME280;69710;64.656;21.218;2023-06-26T09:33:35;101640.53;;;15.49;100.00
49455;BME280;69710;64.656;21.218;2023-06-26T09:36:05;101634.43;;;15.73;100.00
49455;BME280;69710;64.656;21.218;2023-06-26T09:38:35;101629.09;;;15.85;100.00
49455;BME280;69710;64.656;21.218;2023-06-26T09:41:03;101625.45;;;15.85;100.00
49455;BME280;69710;64.656;21.218;2023-06-26T09:43:32;101625.96;;;15.98;100.00
49455;BME280;69710;64.656;21.218;2023-06-26T09:46:00;101626.30;;;16.02;100.00
49455;BME280;69710;64.656;21.218;2023-06-26T09:48:28;101621.80;;;15.68;100.00
49455;BME280;69710;64.656;21.218;2023-06-26T09:50:56;101618.78;;;16.18;100.00
49455;BME280;69710;64.656;21.218;2023-06-26T09:53:25;101616.26;;;15.77;100.00
49455;BME280;69710;64.656;21.218;2023-06-26T09:55:54;101612.07;;;16.06;100.00
49455;BME280;69710;64.656;21.218;2023-06-26T09:58:22;101611.19;;;16.12;100.00
49455;BME280;69710;64.656;21.218;2023-06-26T10:00:51;101605.51;;;15.94;100.00
49455;BME280;69710;64.656;21.218;2023-06-26T10:03:18;101603.06;;;15.50;100.00
49455;BME280;69710;64.656;21.218;2023-06-26T10:05:46;101598.79;;;15.71;100.00
49455;BME280;69710;64.656;21.218;2023-06-26T10:08:14;101598.93;;;15.52;100.00
49455;BME280;69710;64.656;21.218;2023-06-26T10:10:43;101594.33;;;16.30;100.00
49455;BME280;69710;64.656;21.218;2023-06-26T10:13:18;101595.24;;;15.98;100.00
49455;BME280;69710;64.656;21.218;2023-06-26T10:15:50;101595.69;;;16.51;100.00
49455;BME280;69710;64.656;21.218;2023-06-26T10:18:18;101594.74;;;16.27;100.00
49455;BME280;69710;64.656;21.218;2023-06-26T10:20:49;101599.72;;;16.00;100.00
49455;BME280;69710;64.656;21.218;2023-06-26T10:23:19;101596.31;;;16.31;100.00
49455;BME280;69710;64.656;21.218;2023-06-26T10:25:48;101590.14;;;16.66;100.00
49455;BME280;69710;64.656;21.218;2023-06-26T10:28:19;101593.95;;;16.33;100.00
49455;BME280;69710;64.656;21.218;2023-06-26T10:30:50;101592.63;;;16.06;100.00
49455;BME280;69710;64.656;21.218;2023-06-26T10:33:20;101592.05;;;16.01;100.00
49455;BME280;69710;64.656;21.218;2023-06-26T10:35:48;101583.82;;;15.48;100.00
49455;BME280;69710;64.656;21.218;2023-06-26T10:38:16;101583.27;;;15.95;100.00
49455;BME280;69710;64.656;21.218;2023-06-26T10:40:45;101583.75;;;15.70;100.00
49455;BME280;69710;64.656;21.218;2023-06-26T10:43:14;101581.88;;;16.30;100.00
49455;BME280;69710;64.656;21.218;2023-06-26T10:45:44;101584.14;;;15.90;100.00
49455;BME280;69710;64.656;21.218;2023-06-26T10:48:14;101582.73;;;15.57;100.00
49455;BME280;69710;64.656;21.218;2023-06-26T10:50:42;101584.14;;;15.73;100.00
49455;BME280;69710;64.656;21.218;2023-06-26T10:53:14;101579.71;;;15.81;100.00
49455;BME280;69710;64.656;21.218;2023-06-26T10:55:47;101577.88;;;15.58;100.00
49455;BME280;69710;64.656;21.218;2023-06-26T10:58:32;101580.03;;;15.71;100.00
49455;BME280;69710;64.656;21.218;2023-06-26T11:01:18;101574.10;;;15.92;100.00
49455;BME280;69710;64.656;21.218;2023-06-26T11:03:48;101572.98;;;16.08;100.00
49455;BME280;69710;64.656;21.218;2023-06-26T11:06:18;101572.99;;;16.02;100.00
49455;BME280;69710;64.656;21.218;2023-06-26T11:08:47;101570.86;;;15.92;100.00
49455;BME280;69710;64.656;21.218;2023-06-26T11:11:16;101568.65;;;16.06;100.00
49455;BME280;69710;64.656;21.218;2023-06-26T11:13:46;101563.88;;;15.83;100.00
49455;BME280;69710;64.656;21.218;2023-06-26T11:16:15;101565.28;;;16.05;100.00
49455;BME280;69710;64.656;21.218;2023-06-26T11:18:43;101562.18;;;15.86;100.00
49455;BME280;69710;64.656;21.218;2023-06-26T11:21:12;101558.47;;;16.05;100.00
49455;BME280;69710;64.656;21.218;2023-06-26T11:23:41;101554.04;;;16.08;100.00
49455;BME280;69710;64.656;21.218;2023-06-26T11:26:14;101554.63;;;16.25;100.00
49455;BME280;69710;64.656;21.218;2023-06-26T11:28:47;101547.03;;;16.91;100.00
49455;BME280;69710;64.656;21.218;2023-06-26T11:31:31;101545.47;;;17.17;100.00
49455;BME280;69710;64.656;21.218;2023-06-26T11:34:01;101538.96;;;17.34;100.00
49455;BME280;69710;64.656;21.218;2023-06-26T11:36:30;101538.17;;;17.63;100.00
49455;BME280;69710;64.656;21.218;2023-06-26T11:38:59;101539.03;;;18.18;100.00
49455;BME280;69710;64.656;21.218;2023-06-26T11:41:28;101541.23;;;18.52;100.00
49455;BME280;69710;64.656;21.218;2023-06-26T11:44:00;101537.93;;;17.64;100.00
49455;BME280;69710;64.656;21.218;2023-06-26T11:46:28;101535.16;;;17.76;100.00
49455;BME280;69710;64.656;21.218;2023-06-26T11:48:56;101534.09;;;17.64;100.00
49455;BME280;69710;64.656;21.218;2023-06-26T11:51:27;101534.87;;;18.06;100.00
49455;BME280;69710;64.656;21.218;2023-06-26T11:53:55;101527.01;;;18.23;100.00
49455;BME280;69710;64.656;21.218;2023-06-26T11:56:23;101524.85;;;18.00;100.00
49455;BME280;69710;64.656;21.218;2023-06-26T11:58:59;101527.60;;;18.00;100.00
49455;BME280;69710;64.656;21.218;2023-06-26T12:01:27;101530.47;;;17.94;100.00
49455;BME280;69710;64.656;21.218;2023-06-26T12:04:01;101528.91;;;17.32;100.00
49455;BME280;69710;64.656;21.218;2023-06-26T12:06:29;101524.81;;;17.94;100.00
49455;BME280;69710;64.656;21.218;2023-06-26T12:09:00;101523.42;;;17.79;100.00
49455;BME280;69710;64.656;21.218;2023-06-26T12:11:28;101519.54;;;18.43;100.00
49455;BME280;69710;64.656;21.218;2023-06-26T12:13:57;101520.02;;;17.77;100.00
49455;BME280;69710;64.656;21.218;2023-06-26T12:16:25;101521.37;;;17.97;100.00
49455;BME280;69710;64.656;21.218;2023-06-26T12:18:58;101516.81;;;18.35;100.00
49455;BME280;69710;64.656;21.218;2023-06-26T12:21:46;101515.97;;;18.67;100.00
49455;BME280;69710;64.656;21.218;2023-06-26T12:24:16;101510.08;;;18.79;100.00
49455;BME280;69710;64.656;21.218;2023-06-26T12:26:46;101507.68;;;18.42;100.00
49455;BME280;69710;64.656;21.218;2023-06-26T12:29:16;101502.25;;;18.37;100.00
49455;BME280;69710;64.656;21.218;2023-06-26T12:31:46;101500.99;;;17.93;100.00
49455;BME280;69710;64.656;21.218;2023-06-26T12:34:15;101494.74;;;17.41;100.00
49455;BME280;69710;64.656;21.218;2023-06-26T12:36:43;101487.74;;;17.37;100.00
49455;BME280;69710;64.656;21.218;2023-06-26T12:39:11;101488.47;;;17.74;100.00